sensor_id;sensor_type;location;lat;lon;timestamp;pressure;altitude;pressure_sealevel;temperature
53512;BMP280;39392;52.832;13.816;2023-08-31T00:02:06;100345.84;;;24.60
53512;BMP280;39392;52.832;13.816;2023-08-31T00:04:33;100354.06;;;24.60
53512;BMP280;39392;52.832;13.816;2023-08-31T00:07:00;100356.81;;;24.60
53512;BMP280;39392;52.832;13.816;2023-08-31T00:09:26;100356.81;;;24.60
53512;BMP280;39392;52.832;13.816;2023-08-31T00:11:53;100369.44;;;24.62
53512;BMP280;39392;52.832;13.816;2023-08-31T00:14:19;100365.66;;;24.63
53512;BMP280;39392;52.832;13.816;2023-08-31T00:16:46;100361.22;;;24.62
53512;BMP280;39392;52.832;13.816;2023-08-31T00:19:13;100363.97;;;24.62
53512;BMP280;39392;52.832;13.816;2023-08-31T00:21:41;100350.09;;;24.56
53512;BMP280;39392;52.832;13.816;2023-08-31T00:24:08;100347.78;;;24.53
53512;BMP280;39392;52.832;13.816;2023-08-31T00:26:36;100344.22;;;24.53
53512;BMP280;39392;52.832;13.816;2023-08-31T00:29:09;100345.28;;;24.52
53512;BMP280;39392;52.832;13.816;2023-08-31T00:31:35;100341.47;;;24.53
53512;BMP280;39392;52.832;13.816;2023-08-31T00:34:02;100347.59;;;24.55
53512;BMP280;39392;52.832;13.816;2023-08-31T00:36:30;100345.44;;;24.57
53512;BMP280;39392;52.832;13.816;2023-08-31T00:38:58;100343.56;;;24.57
53512;BMP280;39392;52.832;13.816;2023-08-31T00:41:24;100353.25;;;24.60
53512;BMP280;39392;52.832;13.816;2023-08-31T00:43:51;100353.25;;;24.60
53512;BMP280;39392;52.832;13.816;2023-08-31T00:46:17;100345.84;;;24.60
53512;BMP280;39392;52.832;13.816;2023-08-31T00:48:44;100345.03;;;24.60
53512;BMP280;39392;52.832;13.816;2023-08-31T00:51:10;100343.94;;;24.61
53512;BMP280;39392;52.832;13.816;2023-08-31T00:53:37;100338.47;;;24.61
53512;BMP280;39392;52.832;13.816;2023-08-31T00:56:04;100330.25;;;24.61
53512;BMP280;39392;52.832;13.816;2023-08-31T00:58:31;100325.59;;;24.62
53512;BMP280;39392;52.832;13.816;2023-08-31T01:09:14;100328.97;;;24.64
53512;BMP280;39392;52.832;13.816;2023-08-31T01:11:45;100319.91;;;24.63
53512;BMP280;39392;52.832;13.816;2023-08-31T01:14:19;100318.00;;;24.64
53512;BMP280;39392;52.832;13.816;2023-08-31T01:16:49;100320.75;;;24.64
53512;BMP280;39392;52.832;13.816;2023-08-31T01:20:02;100317.19;;;24.63
53512;BMP280;39392;52.832;13.816;2023-08-31T01:22:06;100308.97;;;24.63
53512;BMP280;39392;52.832;13.816;2023-08-31T01:24:34;100318.00;;;24.64
53512;BMP280;39392;52.832;13.816;2023-08-31T01:27:01;100322.41;;;24.65
53512;BMP280;39392;52.832;13.816;2023-08-31T01:29:29;100323.25;;;24.65
53512;BMP280;39392;52.832;13.816;2023-08-31T01:31:56;100318.63;;;24.66
53512;BMP280;39392;52.832;13.816;2023-08-31T01:34:22;100316.09;;;24.64
53512;BMP280;39392;52.832;13.816;2023-08-31T01:36:52;100324.31;;;24.64
53512;BMP280;39392;52.832;13.816;2023-08-31T01:41:48;100321.81;;;24.63
53512;BMP280;39392;52.832;13.816;2023-08-31T01:44:16;100318.84;;;24.64
53512;BMP280;39392;52.832;13.816;2023-08-31T01:46:45;100316.09;;;24.64
53512;BMP280;39392;52.832;13.816;2023-08-31T01:49:12;100320.75;;;24.64
53512;BMP280;39392;52.832;13.816;2023-08-31T01:51:40;100328.97;;;24.64
53512;BMP280;39392;52.832;13.816;2023-08-31T01:54:07;100329.81;;;24.64
53512;BMP280;39392;52.832;13.816;2023-08-31T01:56:33;100337.19;;;24.64
53512;BMP280;39392;52.832;13.816;2023-08-31T01:59:00;100335.53;;;24.63
53512;BMP280;39392;52.832;13.816;2023-08-31T02:01:26;100331.91;;;24.62
53512;BMP280;39392;52.832;13.816;2023-08-31T02:03:53;100338.03;;;24.64
53512;BMP280;39392;52.832;13.816;2023-08-31T02:06:20;100336.34;;;24.63
53512;BMP280;39392;52.832;13.816;2023-08-31T02:08:46;100344.78;;;24.62
53512;BMP280;39392;52.832;13.816;2023-08-31T02:11:13;100344.78;;;24.62
53512;BMP280;39392;52.832;13.816;2023-08-31T02:13:41;100350.72;;;24.58
53512;BMP280;39392;52.832;13.816;2023-08-31T02:16:08;100361.47;;;24.60
53512;BMP280;39392;52.832;13.816;2023-08-31T02:18:34;100359.56;;;24.60
53512;BMP280;39392;52.832;13.816;2023-08-31T02:21:01;100359.78;;;24.59
53512;BMP280;39392;52.832;13.816;2023-08-31T02:23:27;100359.56;;;24.60
53512;BMP280;39392;52.832;13.816;2023-08-31T02:25:54;100365.88;;;24.61
53512;BMP280;39392;52.832;13.816;2023-08-31T02:28:21;100364.19;;;24.60
53512;BMP280;39392;52.832;13.816;2023-08-31T02:30:56;100379.81;;;24.59
53512;BMP280;39392;52.832;13.816;2023-08-31T02:33:23;100370.75;;;24.59
53512;BMP280;39392;52.832;13.816;2023-08-31T02:35:50;100383.81;;;24.57
53512;BMP280;39392;52.832;13.816;2023-08-31T02:38:16;100385.13;;;24.54
53512;BMP280;39392;52.832;13.816;2023-08-31T02:40:45;100381.97;;;24.51
53512;BMP280;39392;52.832;13.816;2023-08-31T02:43:12;100386.16;;;24.53
53512;BMP280;39392;52.832;13.816;2023-08-31T02:45:39;100381.75;;;24.52
53512;BMP280;39392;52.832;13.816;2023-08-31T02:48:07;100379.00;;;24.52
53512;BMP280;39392;52.832;13.816;2023-08-31T02:50:37;100382.38;;;24.54
53512;BMP280;39392;52.832;13.816;2023-08-31T02:53:04;100376.91;;;24.54
53512;BMP280;39392;52.832;13.816;2023-08-31T02:55:34;100384.28;;;24.54
53512;BMP280;39392;52.832;13.816;2023-08-31T02:58:01;100382.81;;;24.51
53512;BMP280;39392;52.832;13.816;2023-08-31T03:00:27;100381.97;;;24.51
53512;BMP280;39392;52.832;13.816;2023-08-31T03:02:54;100381.75;;;24.52
53512;BMP280;39392;52.832;13.816;2023-08-31T03:05:21;100380.66;;;24.53
53512;BMP280;39392;52.832;13.816;2023-08-31T03:07:48;100393.09;;;24.56
53512;BMP280;39392;52.832;13.816;2023-08-31T03:10:14;100384.28;;;24.54
53512;BMP280;39392;52.832;13.816;2023-08-31T03:12:41;100389.75;;;24.54
53512;BMP280;39392;52.832;13.816;2023-08-31T03:15:07;100388.88;;;24.53
53512;BMP280;39392;52.832;13.816;2023-08-31T03:17:34;100388.06;;;24.53
53512;BMP280;39392;52.832;13.816;2023-08-31T03:20:01;100396.50;;;24.51
53512;BMP280;39392;52.832;13.816;2023-08-31T03:22:28;100395.66;;;24.51
53512;BMP280;39392;52.832;13.816;2023-08-31T03:24:54;100390.41;;;24.49
53512;BMP280;39392;52.832;13.816;2023-08-31T03:27:21;100395.66;;;24.51
53512;BMP280;39392;52.832;13.816;2023-08-31T03:29:47;100393.13;;;24.49
53512;BMP280;39392;52.832;13.816;2023-08-31T03:32:15;100394.19;;;24.48
53512;BMP280;39392;52.832;13.816;2023-08-31T03:34:41;100403.06;;;24.50
53512;BMP280;39392;52.832;13.816;2023-08-31T03:37:08;100407.91;;;24.48
53512;BMP280;39392;52.832;13.816;2023-08-31T03:39:35;100404.97;;;24.50
53512;BMP280;39392;52.832;13.816;2023-08-31T03:42:02;100410.81;;;24.53
53512;BMP280;39392;52.832;13.816;2023-08-31T03:44:28;100408.94;;;24.54
53512;BMP280;39392;52.832;13.816;2023-08-31T03:46:55;100420.50;;;24.56
53512;BMP280;39392;52.832;13.816;2023-08-31T03:49:22;100419.03;;;24.53
53512;BMP280;39392;52.832;13.816;2023-08-31T03:51:48;100421.16;;;24.51
53512;BMP280;39392;52.832;13.816;2023-08-31T03:54:15;100417.78;;;24.49
53512;BMP280;39392;52.832;13.816;2023-08-31T03:56:41;100420.75;;;24.48
53512;BMP280;39392;52.832;13.816;2023-08-31T03:59:08;100415.28;;;24.48
53512;BMP280;39392;52.832;13.816;2023-08-31T04:01:35;100414.44;;;24.47
53512;BMP280;39392;52.832;13.816;2023-08-31T04:04:01;100422.44;;;24.49
53512;BMP280;39392;52.832;13.816;2023-08-31T04:06:28;100418.19;;;24.53
53512;BMP280;39392;52.832;13.816;2023-08-31T04:08:55;100419.66;;;24.55
53512;BMP280;39392;52.832;13.816;2023-08-31T04:11:22;100426.22;;;24.54
53512;BMP280;39392;52.832;13.816;2023-08-31T04:13:48;100434.19;;;24.56
53512;BMP280;39392;52.832;13.816;2023-08-31T04:16:15;100429.78;;;24.55
53512;BMP280;39392;52.832;13.816;2023-08-31T04:18:41;100440.94;;;24.53
53512;BMP280;39392;52.832;13.816;2023-08-31T04:21:08;100432.34;;;24.50
53512;BMP280;39392;52.832;13.816;2023-08-31T04:23:35;100435.28;;;24.48
53512;BMP280;39392;52.832;13.816;2023-08-31T04:26:09;100441.44;;;24.44
53512;BMP280;39392;52.832;13.816;2023-08-31T04:28:35;100431.13;;;24.39
53512;BMP280;39392;52.832;13.816;2023-08-31T04:31:04;100440.81;;;24.42
53512;BMP280;39392;52.832;13.816;2023-08-31T04:33:30;100449.41;;;24.45
53512;BMP280;39392;52.832;13.816;2023-08-31T04:35:57;100449.22;;;24.47
53512;BMP280;39392;52.832;13.816;2023-08-31T04:38:24;100451.72;;;24.48
53512;BMP280;39392;52.832;13.816;2023-08-31T04:40:50;100451.72;;;24.48
53512;BMP280;39392;52.832;13.816;2023-08-31T04:43:16;100457.84;;;24.50
53512;BMP280;39392;52.832;13.816;2023-08-31T04:45:43;100454.28;;;24.50
53512;BMP280;39392;52.832;13.816;2023-08-31T04:48:10;100457.44;;;24.47
53512;BMP280;39392;52.832;13.816;2023-08-31T04:50:37;100469.06;;;24.42
53512;BMP280;39392;52.832;13.816;2023-08-31T04:53:04;100471.81;;;24.42
53512;BMP280;39392;52.832;13.816;2023-08-31T04:55:31;100468.41;;;24.47
53512;BMP280;39392;52.832;13.816;2023-08-31T04:57:57;100470.91;;;24.48
53512;BMP280;39392;52.832;13.816;2023-08-31T05:00:24;100472.22;;;24.46
53512;BMP280;39392;52.832;13.816;2023-08-31T05:02:50;100469.91;;;24.43
53512;BMP280;39392;52.832;13.816;2023-08-31T05:05:17;100475.38;;;24.43
53512;BMP280;39392;52.832;13.816;2023-08-31T05:07:47;100475.56;;;24.41
53512;BMP280;39392;52.832;13.816;2023-08-31T05:10:13;100476.22;;;24.43
53512;BMP280;39392;52.832;13.816;2023-08-31T05:12:40;100475.97;;;24.45
53512;BMP280;39392;52.832;13.816;2023-08-31T05:15:06;100471.97;;;24.47
53512;BMP280;39392;52.832;13.816;2023-08-31T05:17:33;100479.97;;;24.49
53512;BMP280;39392;52.832;13.816;2023-08-31T05:20:00;100468.34;;;24.53
53512;BMP280;39392;52.832;13.816;2023-08-31T05:22:27;100462.22;;;24.58
53512;BMP280;39392;52.832;13.816;2023-08-31T05:24:53;100472.72;;;24.61
53512;BMP280;39392;52.832;13.816;2023-08-31T05:27:20;100472.72;;;24.61
53512;BMP280;39392;52.832;13.816;2023-08-31T05:29:46;100473.38;;;24.63
53512;BMP280;39392;52.832;13.816;2023-08-31T05:32:13;100470.81;;;24.62
53512;BMP280;39392;52.832;13.816;2023-08-31T05:34:39;100468.09;;;24.62
53512;BMP280;39392;52.832;13.816;2023-08-31T05:37:06;100475.03;;;24.64
53512;BMP280;39392;52.832;13.816;2023-08-31T05:39:33;100478.38;;;24.66
53512;BMP280;39392;52.832;13.816;2023-08-31T05:41:59;100487.66;;;24.65
53512;BMP280;39392;52.832;13.816;2023-08-31T05:44:28;100484.94;;;24.65
53512;BMP280;39392;52.832;13.816;2023-08-31T05:46:55;100486.59;;;24.66
53512;BMP280;39392;52.832;13.816;2023-08-31T05:49:22;100486.41;;;24.68
53512;BMP280;39392;52.832;13.816;2023-08-31T05:51:49;100496.28;;;24.69
53512;BMP280;39392;52.832;13.816;2023-08-31T05:54:15;100496.28;;;24.69
53512;BMP280;39392;52.832;13.816;2023-08-31T05:56:42;100492.72;;;24.68
53512;BMP280;39392;52.832;13.816;2023-08-31T05:59:09;100499.03;;;24.69
53512;BMP280;39392;52.832;13.816;2023-08-31T06:01:36;100512.75;;;24.69
53512;BMP280;39392;52.832;13.816;2023-08-31T06:04:03;100505.34;;;24.69
53512;BMP280;39392;52.832;13.816;2023-08-31T06:06:30;100516.13;;;24.71
53512;BMP280;39392;52.832;13.816;2023-08-31T06:08:56;100522.63;;;24.70
53512;BMP280;39392;52.832;13.816;2023-08-31T06:11:24;100521.59;;;24.71
53512;BMP280;39392;52.832;13.816;2023-08-31T06:13:50;100523.47;;;24.70
53512;BMP280;39392;52.832;13.816;2023-08-31T06:16:17;100528.75;;;24.72
53512;BMP280;39392;52.832;13.816;2023-08-31T06:18:43;100533.41;;;24.71
53512;BMP280;39392;52.832;13.816;2023-08-31T06:21:10;100533.59;;;24.70
53512;BMP280;39392;52.832;13.816;2023-08-31T06:23:36;100530.84;;;24.70
53512;BMP280;39392;52.832;13.816;2023-08-31T06:26:03;100534.22;;;24.72
53512;BMP280;39392;52.832;13.816;2023-08-31T06:28:30;100527.44;;;24.74
53512;BMP280;39392;52.832;13.816;2023-08-31T06:30:56;100535.31;;;24.71
53512;BMP280;39392;52.832;13.816;2023-08-31T06:33:23;100536.56;;;24.68
53512;BMP280;39392;52.832;13.816;2023-08-31T06:35:49;100529.41;;;24.67
53512;BMP280;39392;52.832;13.816;2023-08-31T06:38:18;100533.19;;;24.66
53512;BMP280;39392;52.832;13.816;2023-08-31T06:40:46;100535.94;;;24.66
53512;BMP280;39392;52.832;13.816;2023-08-31T06:43:12;100531.50;;;24.65
53512;BMP280;39392;52.832;13.816;2023-08-31T06:45:39;100523.28;;;24.65
53512;BMP280;39392;52.832;13.816;2023-08-31T06:48:06;100530.69;;;24.65
53512;BMP280;39392;52.832;13.816;2023-08-31T06:50:33;100536.16;;;24.65
53512;BMP280;39392;52.832;13.816;2023-08-31T06:53:01;100533.66;;;24.63
53512;BMP280;39392;52.832;13.816;2023-08-31T06:55:30;100537.44;;;24.62
53512;BMP280;39392;52.832;13.816;2023-08-31T06:57:58;100543.78;;;24.63
53512;BMP280;39392;52.832;13.816;2023-08-31T07:00:25;100551.75;;;24.64
53512;BMP280;39392;52.832;13.816;2023-08-31T07:02:52;100557.47;;;24.63
53512;BMP280;39392;52.832;13.816;2023-08-31T07:05:19;100564.00;;;24.62
53512;BMP280;39392;52.832;13.816;2023-08-31T07:07:53;100568.44;;;24.63
53512;BMP280;39392;52.832;13.816;2023-08-31T07:10:21;100568.88;;;24.59
53512;BMP280;39392;52.832;13.816;2023-08-31T07:12:50;100581.50;;;24.60
53512;BMP280;39392;52.832;13.816;2023-08-31T07:16:07;100579.81;;;24.59
53512;BMP280;39392;52.832;13.816;2023-08-31T07:19:28;100578.34;;;24.57
53512;BMP280;39392;52.832;13.816;2023-08-31T07:22:54;100577.31;;;24.58
53512;BMP280;39392;52.832;13.816;2023-08-31T07:25:56;100577.31;;;24.58
53512;BMP280;39392;52.832;13.816;2023-08-31T07:28:34;100570.34;;;24.55
53512;BMP280;39392;52.832;13.816;2023-08-31T07:31:15;100581.09;;;24.57
53512;BMP280;39392;52.832;13.816;2023-08-31T07:34:01;100583.81;;;24.57
53512;BMP280;39392;52.832;13.816;2023-08-31T07:36:54;100579.19;;;24.57
53512;BMP280;39392;52.832;13.816;2023-08-31T07:40:13;100583.41;;;24.60
53512;BMP280;39392;52.832;13.816;2023-08-31T07:43:16;100589.50;;;24.62
53512;BMP280;39392;52.832;13.816;2023-08-31T07:46:22;100583.81;;;24.64
53512;BMP280;39392;52.832;13.816;2023-08-31T07:48:48;100587.38;;;24.64
53512;BMP280;39392;52.832;13.816;2023-08-31T07:51:17;100593.47;;;24.66
53512;BMP280;39392;52.832;13.816;2023-08-31T07:53:43;100594.53;;;24.65
53512;BMP280;39392;52.832;13.816;2023-08-31T07:56:10;100610.16;;;24.65
53512;BMP280;39392;52.832;13.816;2023-08-31T07:58:37;100604.06;;;24.63
53512;BMP280;39392;52.832;13.816;2023-08-31T08:01:03;100611.41;;;24.62
53512;BMP280;39392;52.832;13.816;2023-08-31T08:03:31;100614.78;;;24.64
53512;BMP280;39392;52.832;13.816;2023-08-31T08:05:59;100613.97;;;24.64
53512;BMP280;39392;52.832;13.816;2023-08-31T08:08:25;100618.38;;;24.65
53512;BMP280;39392;52.832;13.816;2023-08-31T08:10:55;100606.56;;;24.64
53512;BMP280;39392;52.832;13.816;2023-08-31T08:13:21;100614.78;;;24.64
53512;BMP280;39392;52.832;13.816;2023-08-31T08:15:48;100627.66;;;24.64
53512;BMP280;39392;52.832;13.816;2023-08-31T08:18:15;100617.75;;;24.63
53512;BMP280;39392;52.832;13.816;2023-08-31T08:20:41;100621.09;;;24.65
53512;BMP280;39392;52.832;13.816;2023-08-31T08:23:08;100622.19;;;24.64
53512;BMP280;39392;52.832;13.816;2023-08-31T08:25:34;100621.94;;;24.65
53512;BMP280;39392;52.832;13.816;2023-08-31T08:28:01;100621.09;;;24.65
53512;BMP280;39392;52.832;13.816;2023-08-31T08:30:28;100625.53;;;24.66
53512;BMP280;39392;52.832;13.816;2023-08-31T08:32:55;100626.16;;;24.68
53512;BMP280;39392;52.832;13.816;2023-08-31T08:35:23;100617.72;;;24.69
53512;BMP280;39392;52.832;13.816;2023-08-31T08:37:51;100611.63;;;24.67
53512;BMP280;39392;52.832;13.816;2023-08-31T08:40:18;100619.63;;;24.69
53512;BMP280;39392;52.832;13.816;2023-08-31T08:42:46;100609.72;;;24.68
53512;BMP280;39392;52.832;13.816;2023-08-31T08:45:13;100613.31;;;24.68
53512;BMP280;39392;52.832;13.816;2023-08-31T08:47:44;100616.03;;;24.68
53512;BMP280;39392;52.832;13.816;2023-08-31T08:50:11;100627.00;;;24.68
53512;BMP280;39392;52.832;13.816;2023-08-31T08:52:38;100625.31;;;24.67
53512;BMP280;39392;52.832;13.816;2023-08-31T08:55:05;100627.59;;;24.70
53512;BMP280;39392;52.832;13.816;2023-08-31T08:57:32;100636.91;;;24.69
53512;BMP280;39392;52.832;13.816;2023-08-31T08:59:58;100629.75;;;24.68
53512;BMP280;39392;52.832;13.816;2023-08-31T09:02:25;100626.78;;;24.70
53512;BMP280;39392;52.832;13.816;2023-08-31T09:04:51;100630.34;;;24.70
53512;BMP280;39392;52.832;13.816;2023-08-31T09:07:21;100630.34;;;24.70
53512;BMP280;39392;52.832;13.816;2023-08-31T09:09:48;100641.13;;;24.72
53512;BMP280;39392;52.832;13.816;2023-08-31T09:12:16;100632.72;;;24.67
53512;BMP280;39392;52.832;13.816;2023-08-31T09:14:43;100642.38;;;24.69
53512;BMP280;39392;52.832;13.816;2023-08-31T09:17:10;100639.63;;;24.69
53512;BMP280;39392;52.832;13.816;2023-08-31T09:19:36;100643.44;;;24.68
53512;BMP280;39392;52.832;13.816;2023-08-31T09:22:03;100635.22;;;24.68
53512;BMP280;39392;52.832;13.816;2023-08-31T09:24:39;100639.88;;;24.68
53512;BMP280;39392;52.832;13.816;2023-08-31T09:27:06;100637.97;;;24.68
53512;BMP280;39392;52.832;13.816;2023-08-31T09:29:32;100630.34;;;24.70
53512;BMP280;39392;52.832;13.816;2023-08-31T09:31:59;100643.22;;;24.70
53512;BMP280;39392;52.832;13.816;2023-08-31T09:34:32;100644.06;;;24.70
53512;BMP280;39392;52.832;13.816;2023-08-31T09:37:03;100639.44;;;24.71
53512;BMP280;39392;52.832;13.816;2023-08-31T09:39:37;100641.53;;;24.69
53512;BMP280;39392;52.832;13.816;2023-08-31T09:42:06;100642.38;;;24.69
53512;BMP280;39392;52.832;13.816;2023-08-31T09:44:33;100648.09;;;24.68
53512;BMP280;39392;52.832;13.816;2023-08-31T09:46:59;100639.63;;;24.69
53512;BMP280;39392;52.832;13.816;2023-08-31T09:49:26;100647.03;;;24.69
53512;BMP280;39392;52.832;13.816;2023-08-31T09:51:53;100641.31;;;24.70
53512;BMP280;39392;52.832;13.816;2023-08-31T09:54:20;100641.31;;;24.70
53512;BMP280;39392;52.832;13.816;2023-08-31T09:56:50;100642.38;;;24.69
53512;BMP280;39392;52.832;13.816;2023-08-31T09:59:17;100654.19;;;24.70
53512;BMP280;39392;52.832;13.816;2023-08-31T10:01:46;100647.03;;;24.69
53512;BMP280;39392;52.832;13.816;2023-08-31T10:04:13;100645.13;;;24.69
53512;BMP280;39392;52.832;13.816;2023-08-31T10:06:40;100644.06;;;24.70
53512;BMP280;39392;52.832;13.816;2023-08-31T10:09:07;100645.97;;;24.70
53512;BMP280;39392;52.832;13.816;2023-08-31T10:11:38;100644.06;;;24.70
53512;BMP280;39392;52.832;13.816;2023-08-31T10:14:05;100655.00;;;24.70
53512;BMP280;39392;52.832;13.816;2023-08-31T10:16:32;100637.75;;;24.70
53512;BMP280;39392;52.832;13.816;2023-08-31T10:18:59;100639.63;;;24.69
53512;BMP280;39392;52.832;13.816;2023-08-31T10:21:25;100641.53;;;24.69
53512;BMP280;39392;52.832;13.816;2023-08-31T10:23:52;100650.84;;;24.68
53512;BMP280;39392;52.832;13.816;2023-08-31T10:26:28;100650.41;;;24.71
53512;BMP280;39392;52.832;13.816;2023-08-31T10:28:56;100645.13;;;24.69
53512;BMP280;39392;52.832;13.816;2023-08-31T10:31:23;100646.78;;;24.70
53512;BMP280;39392;52.832;13.816;2023-08-31T10:34:00;100654.19;;;24.70
53512;BMP280;39392;52.832;13.816;2023-08-31T10:39:20;100646.78;;;24.70
53512;BMP280;39392;52.832;13.816;2023-08-31T10:41:57;100649.53;;;24.70
53512;BMP280;39392;52.832;13.816;2023-08-31T10:44:24;100655.88;;;24.71
53512;BMP280;39392;52.832;13.816;2023-08-31T10:46:52;100662.41;;;24.70
53512;BMP280;39392;52.832;13.816;2023-08-31T10:49:20;100655.47;;;24.67
53512;BMP280;39392;52.832;13.816;2023-08-31T10:51:48;100645.97;;;24.70
53512;BMP280;39392;52.832;13.816;2023-08-31T10:59:17;100643.22;;;24.70
53512;BMP280;39392;52.832;13.816;2023-08-31T11:01:53;100647.84;;;24.69
53512;BMP280;39392;52.832;13.816;2023-08-31T11:04:24;100646.78;;;24.70
53512;BMP280;39392;52.832;13.816;2023-08-31T11:09:37;100648.50;;;24.71
53512;BMP280;39392;52.832;13.816;2023-08-31T11:12:06;100648.69;;;24.70
53512;BMP280;39392;52.832;13.816;2023-08-31T11:14:33;100648.69;;;24.70
53512;BMP280;39392;52.832;13.816;2023-08-31T11:17:00;100647.03;;;24.69
53512;BMP280;39392;52.832;13.816;2023-08-31T11:19:28;100649.53;;;24.70
53512;BMP280;39392;52.832;13.816;2023-08-31T11:21:54;100647.66;;;24.71
53512;BMP280;39392;52.832;13.816;2023-08-31T11:24:21;100650.41;;;24.71
53512;BMP280;39392;52.832;13.816;2023-08-31T11:26:49;100653.34;;;24.69
53512;BMP280;39392;52.832;13.816;2023-08-31T11:29:16;100650.59;;;24.69
53512;BMP280;39392;52.832;13.816;2023-08-31T11:31:43;100651.66;;;24.68
53512;BMP280;39392;52.832;13.816;2023-08-31T11:34:17;100654.19;;;24.70
53512;BMP280;39392;52.832;13.816;2023-08-31T11:36:44;100656.09;;;24.69
53512;BMP280;39392;52.832;13.816;2023-08-31T11:39:12;100668.09;;;24.68
53512;BMP280;39392;52.832;13.816;2023-08-31T11:41:39;100656.31;;;24.68
53512;BMP280;39392;52.832;13.816;2023-08-31T11:44:09;100662.00;;;24.66
53512;BMP280;39392;52.832;13.816;2023-08-31T11:46:36;100665.59;;;24.67
53512;BMP280;39392;52.832;13.816;2023-08-31T11:49:03;100656.50;;;24.66
53512;BMP280;39392;52.832;13.816;2023-08-31T11:51:31;100662.22;;;24.65
53512;BMP280;39392;52.832;13.816;2023-08-31T11:53:58;100662.22;;;24.65
53512;BMP280;39392;52.832;13.816;2023-08-31T11:56:26;100668.53;;;24.65
53512;BMP280;39392;52.832;13.816;2023-08-31T11:58:53;100664.13;;;24.64
53512;BMP280;39392;52.832;13.816;2023-08-31T12:01:30;100658.63;;;24.64
53512;BMP280;39392;52.832;13.816;2023-08-31T12:03:57;100659.47;;;24.65
53512;BMP280;39392;52.832;13.816;2023-08-31T12:06:23;100663.06;;;24.65
53512;BMP280;39392;52.832;13.816;2023-08-31T12:08:50;100663.06;;;24.65
53512;BMP280;39392;52.832;13.816;2023-08-31T12:11:18;100659.47;;;24.65
53512;BMP280;39392;52.832;13.816;2023-08-31T12:13:45;100662.22;;;24.65
53512;BMP280;39392;52.832;13.816;2023-08-31T12:16:12;100660.31;;;24.65
53512;BMP280;39392;52.832;13.816;2023-08-31T12:18:38;100655.66;;;24.66
53512;BMP280;39392;52.832;13.816;2023-08-31T12:21:05;100648.50;;;24.65
53512;BMP280;39392;52.832;13.816;2023-08-31T12:23:32;100645.53;;;24.66
53512;BMP280;39392;52.832;13.816;2023-08-31T12:25:59;100647.25;;;24.67
53512;BMP280;39392;52.832;13.816;2023-08-31T12:28:25;100643.69;;;24.67
53512;BMP280;39392;52.832;13.816;2023-08-31T12:30:53;100652.72;;;24.67
53512;BMP280;39392;52.832;13.816;2023-08-31T12:33:20;100655.25;;;24.69
53512;BMP280;39392;52.832;13.816;2023-08-31T12:35:48;100642.38;;;24.69
53512;BMP280;39392;52.832;13.816;2023-08-31T12:38:14;100657.16;;;24.68
53512;BMP280;39392;52.832;13.816;2023-08-31T12:40:41;100659.06;;;24.68
53512;BMP280;39392;52.832;13.816;2023-08-31T12:43:07;100667.28;;;24.68
53512;BMP280;39392;52.832;13.816;2023-08-31T12:45:35;100659.06;;;24.68
53512;BMP280;39392;52.832;13.816;2023-08-31T12:48:02;100666.22;;;24.69
53512;BMP280;39392;52.832;13.816;2023-08-31T12:50:30;100665.38;;;24.68
53512;BMP280;39392;52.832;13.816;2023-08-31T12:52:57;100664.53;;;24.68
53512;BMP280;39392;52.832;13.816;2023-08-31T12:55:25;100671.91;;;24.67
53512;BMP280;39392;52.832;13.816;2023-08-31T12:57:51;100680.34;;;24.66
53512;BMP280;39392;52.832;13.816;2023-08-31T13:00:18;100687.94;;;24.64
53512;BMP280;39392;52.832;13.816;2023-08-31T13:02:45;100679.91;;;24.62
53512;BMP280;39392;52.832;13.816;2023-08-31T13:05:12;100680.16;;;24.60
53512;BMP280;39392;52.832;13.816;2023-08-31T13:07:39;100682.88;;;24.60
53512;BMP280;39392;52.832;13.816;2023-08-31T13:10:05;100681.22;;;24.59
53512;BMP280;39392;52.832;13.816;2023-08-31T13:12:33;100680.38;;;24.59
53512;BMP280;39392;52.832;13.816;2023-08-31T13:14:59;100680.38;;;24.59
53512;BMP280;39392;52.832;13.816;2023-08-31T13:17:26;100688.38;;;24.60
53512;BMP280;39392;52.832;13.816;2023-08-31T13:19:53;100690.25;;;24.60
53512;BMP280;39392;52.832;13.816;2023-08-31T13:22:20;100682.88;;;24.60
53512;BMP280;39392;52.832;13.816;2023-08-31T13:24:47;100677.41;;;24.60
53512;BMP280;39392;52.832;13.816;2023-08-31T13:27:14;100689.44;;;24.59
53512;BMP280;39392;52.832;13.816;2023-08-31T13:29:41;100693.22;;;24.58
53512;BMP280;39392;52.832;13.816;2023-08-31T13:32:08;100687.53;;;24.60
53512;BMP280;39392;52.832;13.816;2023-08-31T13:34:35;100692.16;;;24.59
53512;BMP280;39392;52.832;13.816;2023-08-31T13:37:03;100695.13;;;24.58
53512;BMP280;39392;52.832;13.816;2023-08-31T13:39:31;100703.34;;;24.58
53512;BMP280;39392;52.832;13.816;2023-08-31T13:41:57;100710.69;;;24.57
53512;BMP280;39392;52.832;13.816;2023-08-31T13:44:24;100707.13;;;24.57
53512;BMP280;39392;52.832;13.816;2023-08-31T13:46:51;100699.13;;;24.55
53512;BMP280;39392;52.832;13.816;2023-08-31T13:49:17;100707.56;;;24.54
53512;BMP280;39392;52.832;13.816;2023-08-31T13:51:44;100703.13;;;24.53
53512;BMP280;39392;52.832;13.816;2023-08-31T13:54:11;100698.50;;;24.53
53512;BMP280;39392;52.832;13.816;2023-08-31T13:56:38;100692.41;;;24.51
53512;BMP280;39392;52.832;13.816;2023-08-31T13:59:05;100693.47;;;24.50
53512;BMP280;39392;52.832;13.816;2023-08-31T14:01:31;100693.47;;;24.50
53512;BMP280;39392;52.832;13.816;2023-08-31T14:03:58;100702.50;;;24.51
53512;BMP280;39392;52.832;13.816;2023-08-31T14:06:25;100690.72;;;24.50
53512;BMP280;39392;52.832;13.816;2023-08-31T14:08:52;100689.00;;;24.49
53512;BMP280;39392;52.832;13.816;2023-08-31T14:11:18;100690.06;;;24.48
53512;BMP280;39392;52.832;13.816;2023-08-31T14:13:45;100690.72;;;24.50